Terminal Aerodrome Forecast
Issued by NWS

Home | Current Version | Previous Version | Text Only | Print | Product List | Glossary On
Versions: 1 2 3 4 5 6 7 8 9 10 11 12 13 14 15 16 17 18 19 20 21 22 23 24 25
000
FTUS42 KILM 040500
TAFCRE
TAF
KCRE 040527Z 0406/0506 20003KT 1/4SM FG OVC002
     FM041000 21004KT 1/2SM FG OVC002 WS010/22036KT
      TEMPO 0412/0416 2SM BR BKN004
     FM041600 21013G21KT 6SM BR BKN006
     FM041800 21013G20KT P6SM BKN010
     FM050000 22011KT 4SM BR BKN002=

USA.gov is the U.S. government's official web portal to all federal, state and local government web resources and services.